Terminal Aerodrome Forecast
Issued by NWS

Home | Current Version | Previous Version | Text Only | Print | Product List | Glossary On
Versions: 1 2 3 4 5 6 7 8 9 10 11 12 13 14 15 16 17 18 19
000
FTUS45 KRIW 301724
TAFCPR
TAF
KCPR 301724Z 3018/0118 24015KT P6SM SKC
     FM301900 27011KT P6SM SCT100
     FM010100 26008KT P6SM BKN100
     FM011100 34007KT P6SM SCT060 BKN080
     FM011300 31006KT P6SM VCSH BKN035
     FM011700 31012G22KT P6SM SCT050 BKN100=

USA.gov is the U.S. government's official web portal to all federal, state and local government web resources and services.